sensor_id;sensor_type;location;lat;lon;timestamp;P1;durP1;ratioP1;P2;durP2;ratioP2
36457;SDS011;22480;50.546;12.292;2023-04-24T00:02:11;4.93;;;2.90;;
36457;SDS011;22480;50.546;12.292;2023-04-24T00:04:38;3.92;;;3.13;;
36457;SDS011;22480;50.546;12.292;2023-04-24T00:07:06;4.47;;;2.78;;
36457;SDS011;22480;50.546;12.292;2023-04-24T00:09:33;5.07;;;2.97;;
36457;SDS011;22480;50.546;12.292;2023-04-24T00:11:58;4.50;;;2.72;;
36457;SDS011;22480;50.546;12.292;2023-04-24T00:14:24;3.45;;;3.15;;
36457;SDS011;22480;50.546;12.292;2023-04-24T00:16:50;4.35;;;2.92;;
36457;SDS011;22480;50.546;12.292;2023-04-24T00:19:16;4.55;;;3.30;;
36457;SDS011;22480;50.546;12.292;2023-04-24T00:21:42;3.20;;;2.72;;
36457;SDS011;22480;50.546;12.292;2023-04-24T00:24:08;4.95;;;3.00;;
36457;SDS011;22480;50.546;12.292;2023-04-24T00:26:34;3.17;;;2.85;;
36457;SDS011;22480;50.546;12.292;2023-04-24T00:29:00;4.65;;;3.00;;
36457;SDS011;22480;50.546;12.292;2023-04-24T00:31:26;3.83;;;3.50;;
36457;SDS011;22480;50.546;12.292;2023-04-24T00:33:51;3.25;;;2.95;;
36457;SDS011;22480;50.546;12.292;2023-04-24T00:36:17;4.22;;;3.45;;
36457;SDS011;22480;50.546;12.292;2023-04-24T00:38:45;5.35;;;3.10;;
36457;SDS011;22480;50.546;12.292;2023-04-24T00:41:11;5.03;;;3.70;;
36457;SDS011;22480;50.546;12.292;2023-04-24T00:43:37;3.83;;;3.42;;
36457;SDS011;22480;50.546;12.292;2023-04-24T00:46:04;3.92;;;3.50;;
36457;SDS011;22480;50.546;12.292;2023-04-24T00:48:30;4.57;;;3.63;;
36457;SDS011;22480;50.546;12.292;2023-04-24T00:50:56;6.40;;;3.80;;
36457;SDS011;22480;50.546;12.292;2023-04-24T00:53:23;6.68;;;4.30;;
36457;SDS011;22480;50.546;12.292;2023-04-24T00:55:50;4.65;;;3.80;;
36457;SDS011;22480;50.546;12.292;2023-04-24T00:58:16;6.20;;;3.70;;
36457;SDS011;22480;50.546;12.292;2023-04-24T01:00:42;5.93;;;4.22;;
36457;SDS011;22480;50.546;12.292;2023-04-24T01:03:08;4.28;;;3.85;;
36457;SDS011;22480;50.546;12.292;2023-04-24T01:05:36;5.15;;;3.40;;
36457;SDS011;22480;50.546;12.292;2023-04-24T01:08:02;5.53;;;3.65;;
36457;SDS011;22480;50.546;12.292;2023-04-24T01:10:28;4.25;;;3.60;;
36457;SDS011;22480;50.546;12.292;2023-04-24T01:12:56;3.90;;;3.47;;
36457;SDS011;22480;50.546;12.292;2023-04-24T01:15:23;6.20;;;3.60;;
36457;SDS011;22480;50.546;12.292;2023-04-24T01:17:49;4.47;;;3.08;;
36457;SDS011;22480;50.546;12.292;2023-04-24T01:20:15;4.30;;;3.05;;
36457;SDS011;22480;50.546;12.292;2023-04-24T01:22:42;5.18;;;3.13;;
36457;SDS011;22480;50.546;12.292;2023-04-24T01:25:08;5.28;;;2.85;;
36457;SDS011;22480;50.546;12.292;2023-04-24T01:27:34;4.07;;;2.50;;
36457;SDS011;22480;50.546;12.292;2023-04-24T01:29:59;3.75;;;2.70;;
36457;SDS011;22480;50.546;12.292;2023-04-24T01:32:29;3.65;;;2.47;;
36457;SDS011;22480;50.546;12.292;2023-04-24T01:34:54;5.45;;;3.00;;
36457;SDS011;22480;50.546;12.292;2023-04-24T01:37:20;5.00;;;3.10;;
36457;SDS011;22480;50.546;12.292;2023-04-24T01:39:46;4.68;;;3.20;;
36457;SDS011;22480;50.546;12.292;2023-04-24T01:42:12;3.15;;;2.85;;
36457;SDS011;22480;50.546;12.292;2023-04-24T01:44:38;3.35;;;2.80;;
36457;SDS011;22480;50.546;12.292;2023-04-24T01:47:04;4.40;;;3.10;;
36457;SDS011;22480;50.546;12.292;2023-04-24T01:49:31;3.97;;;3.17;;
36457;SDS011;22480;50.546;12.292;2023-04-24T01:51:57;4.30;;;2.85;;
36457;SDS011;22480;50.546;12.292;2023-04-24T01:54:23;5.18;;;3.17;;
36457;SDS011;22480;50.546;12.292;2023-04-24T01:56:49;3.80;;;3.13;;
36457;SDS011;22480;50.546;12.292;2023-04-24T01:59:15;4.13;;;3.33;;
36457;SDS011;22480;50.546;12.292;2023-04-24T02:01:43;3.22;;;2.92;;
36457;SDS011;22480;50.546;12.292;2023-04-24T02:04:08;3.88;;;2.88;;
36457;SDS011;22480;50.546;12.292;2023-04-24T02:06:34;4.38;;;3.10;;
36457;SDS011;22480;50.546;12.292;2023-04-24T02:09:00;5.53;;;3.13;;
36457;SDS011;22480;50.546;12.292;2023-04-24T02:11:27;4.45;;;3.22;;
36457;SDS011;22480;50.546;12.292;2023-04-24T02:13:53;4.18;;;3.28;;
36457;SDS011;22480;50.546;12.292;2023-04-24T02:16:18;4.63;;;3.30;;
36457;SDS011;22480;50.546;12.292;2023-04-24T02:18:44;6.03;;;3.92;;
36457;SDS011;22480;50.546;12.292;2023-04-24T02:21:10;5.30;;;3.83;;
36457;SDS011;22480;50.546;12.292;2023-04-24T02:23:36;4.25;;;3.47;;
36457;SDS011;22480;50.546;12.292;2023-04-24T02:26:02;5.05;;;3.85;;
36457;SDS011;22480;50.546;12.292;2023-04-24T02:28:27;5.70;;;3.90;;
36457;SDS011;22480;50.546;12.292;2023-04-24T02:30:53;6.57;;;4.22;;
36457;SDS011;22480;50.546;12.292;2023-04-24T02:33:21;5.80;;;4.35;;
36457;SDS011;22480;50.546;12.292;2023-04-24T02:35:47;6.60;;;4.32;;
36457;SDS011;22480;50.546;12.292;2023-04-24T02:38:12;4.47;;;3.88;;
36457;SDS011;22480;50.546;12.292;2023-04-24T02:40:38;5.68;;;4.13;;
36457;SDS011;22480;50.546;12.292;2023-04-24T02:43:04;5.38;;;4.25;;
36457;SDS011;22480;50.546;12.292;2023-04-24T02:45:30;4.50;;;3.97;;
36457;SDS011;22480;50.546;12.292;2023-04-24T02:47:55;5.80;;;4.60;;
36457;SDS011;22480;50.546;12.292;2023-04-24T02:50:21;5.25;;;4.45;;
36457;SDS011;22480;50.546;12.292;2023-04-24T02:52:47;5.60;;;4.35;;
36457;SDS011;22480;50.546;12.292;2023-04-24T02:55:12;6.07;;;4.95;;
36457;SDS011;22480;50.546;12.292;2023-04-24T02:57:38;5.55;;;4.25;;
36457;SDS011;22480;50.546;12.292;2023-04-24T03:00:05;7.72;;;4.78;;
36457;SDS011;22480;50.546;12.292;2023-04-24T03:02:32;5.05;;;4.55;;
36457;SDS011;22480;50.546;12.292;2023-04-24T03:04:59;6.18;;;4.32;;
36457;SDS011;22480;50.546;12.292;2023-04-24T03:07:24;5.05;;;4.55;;
36457;SDS011;22480;50.546;12.292;2023-04-24T03:09:50;6.93;;;5.00;;
36457;SDS011;22480;50.546;12.292;2023-04-24T03:12:16;6.10;;;4.38;;
36457;SDS011;22480;50.546;12.292;2023-04-24T03:14:43;6.35;;;4.63;;
36457;SDS011;22480;50.546;12.292;2023-04-24T03:17:09;6.43;;;4.75;;
36457;SDS011;22480;50.546;12.292;2023-04-24T03:19:34;7.38;;;4.28;;
36457;SDS011;22480;50.546;12.292;2023-04-24T03:22:08;5.93;;;4.38;;
36457;SDS011;22480;50.546;12.292;2023-04-24T03:24:35;8.65;;;4.88;;
36457;SDS011;22480;50.546;12.292;2023-04-24T03:27:00;4.90;;;4.22;;
36457;SDS011;22480;50.546;12.292;2023-04-24T03:29:49;4.97;;;4.22;;
36457;SDS011;22480;50.546;12.292;2023-04-24T03:32:22;6.68;;;4.22;;
36457;SDS011;22480;50.546;12.292;2023-04-24T03:34:49;5.25;;;4.45;;
36457;SDS011;22480;50.546;12.292;2023-04-24T03:37:15;5.75;;;4.38;;
36457;SDS011;22480;50.546;12.292;2023-04-24T03:39:47;4.93;;;4.28;;
36457;SDS011;22480;50.546;12.292;2023-04-24T03:42:15;4.75;;;3.53;;
36457;SDS011;22480;50.546;12.292;2023-04-24T03:44:49;6.70;;;4.20;;
36457;SDS011;22480;50.546;12.292;2023-04-24T03:47:15;4.60;;;3.90;;
36457;SDS011;22480;50.546;12.292;2023-04-24T03:49:41;6.50;;;3.97;;
36457;SDS011;22480;50.546;12.292;2023-04-24T03:52:08;6.40;;;3.47;;
36457;SDS011;22480;50.546;12.292;2023-04-24T03:54:34;4.78;;;3.83;;
36457;SDS011;22480;50.546;12.292;2023-04-24T03:57:00;7.45;;;3.92;;
36457;SDS011;22480;50.546;12.292;2023-04-24T03:59:28;5.63;;;4.03;;
36457;SDS011;22480;50.546;12.292;2023-04-24T04:02:06;4.65;;;3.70;;
36457;SDS011;22480;50.546;12.292;2023-04-24T04:04:32;4.30;;;3.60;;
36457;SDS011;22480;50.546;12.292;2023-04-24T04:06:58;7.18;;;3.17;;
36457;SDS011;22480;50.546;12.292;2023-04-24T04:09:28;5.53;;;3.50;;
36457;SDS011;22480;50.546;12.292;2023-04-24T04:11:54;4.50;;;3.47;;
36457;SDS011;22480;50.546;12.292;2023-04-24T04:14:21;6.80;;;3.70;;
36457;SDS011;22480;50.546;12.292;2023-04-24T04:16:47;3.72;;;3.10;;
36457;SDS011;22480;50.546;12.292;2023-04-24T04:19:13;7.22;;;3.75;;
36457;SDS011;22480;50.546;12.292;2023-04-24T04:21:39;4.75;;;3.50;;
36457;SDS011;22480;50.546;12.292;2023-04-24T04:24:12;6.35;;;3.10;;
36457;SDS011;22480;50.546;12.292;2023-04-24T04:26:42;4.03;;;3.10;;
36457;SDS011;22480;50.546;12.292;2023-04-24T04:29:12;3.37;;;3.07;;
36457;SDS011;22480;50.546;12.292;2023-04-24T04:31:42;7.47;;;3.38;;
36457;SDS011;22480;50.546;12.292;2023-04-24T04:34:11;4.05;;;3.13;;
36457;SDS011;22480;50.546;12.292;2023-04-24T04:36:38;4.15;;;2.83;;
36457;SDS011;22480;50.546;12.292;2023-04-24T04:39:24;3.50;;;2.70;;
36457;SDS011;22480;50.546;12.292;2023-04-24T04:42:02;6.07;;;2.90;;
36457;SDS011;22480;50.546;12.292;2023-04-24T04:44:37;4.30;;;3.25;;
36457;SDS011;22480;50.546;12.292;2023-04-24T04:47:05;7.47;;;4.53;;
36457;SDS011;22480;50.546;12.292;2023-04-24T04:49:34;5.53;;;3.20;;
36457;SDS011;22480;50.546;12.292;2023-04-24T04:52:00;4.88;;;3.05;;
36457;SDS011;22480;50.546;12.292;2023-04-24T04:54:27;3.78;;;2.60;;
36457;SDS011;22480;50.546;12.292;2023-04-24T04:56:53;2.80;;;2.50;;
36457;SDS011;22480;50.546;12.292;2023-04-24T04:59:20;6.22;;;2.67;;
36457;SDS011;22480;50.546;12.292;2023-04-24T05:01:49;4.70;;;2.10;;
36457;SDS011;22480;50.546;12.292;2023-04-24T05:04:16;3.33;;;1.98;;
36457;SDS011;22480;50.546;12.292;2023-04-24T05:06:42;3.65;;;2.13;;
36457;SDS011;22480;50.546;12.292;2023-04-24T05:09:08;2.90;;;2.20;;
36457;SDS011;22480;50.546;12.292;2023-04-24T05:11:51;6.88;;;3.08;;
36457;SDS011;22480;50.546;12.292;2023-04-24T05:14:17;6.10;;;1.90;;
36457;SDS011;22480;50.546;12.292;2023-04-24T05:16:44;3.80;;;2.47;;
36457;SDS011;22480;50.546;12.292;2023-04-24T05:19:11;2.65;;;2.30;;
36457;SDS011;22480;50.546;12.292;2023-04-24T05:21:40;3.50;;;2.13;;
36457;SDS011;22480;50.546;12.292;2023-04-24T05:24:07;4.70;;;2.28;;
36457;SDS011;22480;50.546;12.292;2023-04-24T05:27:04;5.30;;;2.72;;
36457;SDS011;22480;50.546;12.292;2023-04-24T05:29:35;7.35;;;2.88;;
36457;SDS011;22480;50.546;12.292;2023-04-24T05:32:02;3.45;;;2.30;;
36457;SDS011;22480;50.546;12.292;2023-04-24T05:34:29;3.38;;;2.25;;
36457;SDS011;22480;50.546;12.292;2023-04-24T05:36:56;4.20;;;2.47;;
36457;SDS011;22480;50.546;12.292;2023-04-24T05:39:21;3.67;;;2.25;;
36457;SDS011;22480;50.546;12.292;2023-04-24T05:41:47;2.40;;;2.20;;
36457;SDS011;22480;50.546;12.292;2023-04-24T05:44:13;2.10;;;1.75;;
36457;SDS011;22480;50.546;12.292;2023-04-24T05:46:38;4.03;;;2.08;;
36457;SDS011;22480;50.546;12.292;2023-04-24T05:49:04;2.85;;;1.95;;
36457;SDS011;22480;50.546;12.292;2023-04-24T05:51:32;2.83;;;2.10;;
36457;SDS011;22480;50.546;12.292;2023-04-24T05:53:58;4.78;;;2.50;;
36457;SDS011;22480;50.546;12.292;2023-04-24T05:56:24;4.50;;;2.53;;
36457;SDS011;22480;50.546;12.292;2023-04-24T05:58:50;3.78;;;2.08;;
36457;SDS011;22480;50.546;12.292;2023-04-24T06:01:16;4.75;;;2.05;;
36457;SDS011;22480;50.546;12.292;2023-04-24T06:03:48;1.75;;;1.65;;
36457;SDS011;22480;50.546;12.292;2023-04-24T06:06:13;1.92;;;1.73;;
36457;SDS011;22480;50.546;12.292;2023-04-24T06:08:40;4.18;;;1.80;;
36457;SDS011;22480;50.546;12.292;2023-04-24T06:11:07;4.72;;;1.75;;
36457;SDS011;22480;50.546;12.292;2023-04-24T06:13:33;1.60;;;1.50;;
36457;SDS011;22480;50.546;12.292;2023-04-24T06:16:17;2.88;;;1.40;;
36457;SDS011;22480;50.546;12.292;2023-04-24T06:18:50;2.55;;;1.67;;
36457;SDS011;22480;50.546;12.292;2023-04-24T06:21:16;3.85;;;1.50;;
36457;SDS011;22480;50.546;12.292;2023-04-24T06:23:43;1.92;;;1.30;;
36457;SDS011;22480;50.546;12.292;2023-04-24T06:26:09;2.03;;;1.60;;
36457;SDS011;22480;50.546;12.292;2023-04-24T06:28:35;2.22;;;1.65;;
36457;SDS011;22480;50.546;12.292;2023-04-24T06:31:00;5.25;;;2.17;;
36457;SDS011;22480;50.546;12.292;2023-04-24T06:33:26;2.75;;;1.60;;
36457;SDS011;22480;50.546;12.292;2023-04-24T06:35:52;1.92;;;1.27;;
36457;SDS011;22480;50.546;12.292;2023-04-24T06:38:17;2.08;;;1.67;;
36457;SDS011;22480;50.546;12.292;2023-04-24T06:40:43;4.13;;;1.45;;
36457;SDS011;22480;50.546;12.292;2023-04-24T06:43:10;2.38;;;1.38;;
36457;SDS011;22480;50.546;12.292;2023-04-24T06:45:36;1.98;;;1.52;;
36457;SDS011;22480;50.546;12.292;2023-04-24T06:48:01;6.63;;;1.77;;
36457;SDS011;22480;50.546;12.292;2023-04-24T06:50:27;4.90;;;1.83;;
36457;SDS011;22480;50.546;12.292;2023-04-24T06:52:53;1.52;;;1.33;;
36457;SDS011;22480;50.546;12.292;2023-04-24T06:55:19;1.40;;;1.10;;
36457;SDS011;22480;50.546;12.292;2023-04-24T06:57:44;2.88;;;1.50;;
36457;SDS011;22480;50.546;12.292;2023-04-24T07:00:10;1.90;;;1.00;;
36457;SDS011;22480;50.546;12.292;2023-04-24T07:02:37;3.13;;;1.20;;
36457;SDS011;22480;50.546;12.292;2023-04-24T07:05:03;3.50;;;1.35;;
36457;SDS011;22480;50.546;12.292;2023-04-24T07:07:29;2.75;;;1.27;;
36457;SDS011;22480;50.546;12.292;2023-04-24T07:09:56;2.05;;;1.00;;
36457;SDS011;22480;50.546;12.292;2023-04-24T07:12:22;4.03;;;1.90;;
36457;SDS011;22480;50.546;12.292;2023-04-24T07:14:48;4.50;;;1.48;;
36457;SDS011;22480;50.546;12.292;2023-04-24T07:17:15;3.45;;;2.15;;
36457;SDS011;22480;50.546;12.292;2023-04-24T07:19:41;2.10;;;1.33;;
36457;SDS011;22480;50.546;12.292;2023-04-24T07:22:07;1.80;;;0.85;;
36457;SDS011;22480;50.546;12.292;2023-04-24T07:24:32;1.20;;;0.80;;
36457;SDS011;22480;50.546;12.292;2023-04-24T07:26:58;1.42;;;0.88;;
36457;SDS011;22480;50.546;12.292;2023-04-24T07:29:26;1.33;;;0.90;;
36457;SDS011;22480;50.546;12.292;2023-04-24T07:31:52;1.05;;;0.73;;
36457;SDS011;22480;50.546;12.292;2023-04-24T07:34:19;2.05;;;1.00;;
36457;SDS011;22480;50.546;12.292;2023-04-24T07:36:45;1.27;;;0.80;;
36457;SDS011;22480;50.546;12.292;2023-04-24T07:39:11;1.50;;;0.70;;
36457;SDS011;22480;50.546;12.292;2023-04-24T07:41:37;2.85;;;0.98;;
36457;SDS011;22480;50.546;12.292;2023-04-24T07:44:03;3.85;;;0.95;;
36457;SDS011;22480;50.546;12.292;2023-04-24T07:46:29;5.57;;;1.00;;
36457;SDS011;22480;50.546;12.292;2023-04-24T07:48:55;5.18;;;1.10;;
36457;SDS011;22480;50.546;12.292;2023-04-24T07:51:21;1.50;;;0.88;;
36457;SDS011;22480;50.546;12.292;2023-04-24T07:53:47;1.23;;;0.68;;
36457;SDS011;22480;50.546;12.292;2023-04-24T07:56:12;1.30;;;0.90;;
36457;SDS011;22480;50.546;12.292;2023-04-24T07:58:38;4.97;;;0.90;;
36457;SDS011;22480;50.546;12.292;2023-04-24T08:01:04;2.00;;;0.80;;
36457;SDS011;22480;50.546;12.292;2023-04-24T08:03:30;1.52;;;0.65;;
36457;SDS011;22480;50.546;12.292;2023-04-24T08:05:55;3.08;;;0.85;;
36457;SDS011;22480;50.546;12.292;2023-04-24T08:08:22;3.65;;;0.88;;
36457;SDS011;22480;50.546;12.292;2023-04-24T08:10:47;6.72;;;1.35;;
36457;SDS011;22480;50.546;12.292;2023-04-24T08:13:14;2.13;;;1.20;;
36457;SDS011;22480;50.546;12.292;2023-04-24T08:15:39;2.25;;;0.90;;
36457;SDS011;22480;50.546;12.292;2023-04-24T08:18:05;1.30;;;0.88;;
36457;SDS011;22480;50.546;12.292;2023-04-24T08:20:31;3.33;;;1.05;;
36457;SDS011;22480;50.546;12.292;2023-04-24T08:22:57;1.33;;;0.57;;
36457;SDS011;22480;50.546;12.292;2023-04-24T08:25:23;3.53;;;0.80;;
36457;SDS011;22480;50.546;12.292;2023-04-24T08:27:50;1.08;;;0.77;;
36457;SDS011;22480;50.546;12.292;2023-04-24T08:30:16;2.15;;;0.90;;
36457;SDS011;22480;50.546;12.292;2023-04-24T08:32:42;1.23;;;0.70;;
36457;SDS011;22480;50.546;12.292;2023-04-24T08:35:08;3.53;;;0.93;;
36457;SDS011;22480;50.546;12.292;2023-04-24T08:37:35;2.45;;;0.70;;
36457;SDS011;22480;50.546;12.292;2023-04-24T08:40:01;2.63;;;0.90;;
36457;SDS011;22480;50.546;12.292;2023-04-24T08:42:36;1.33;;;0.75;;
36457;SDS011;22480;50.546;12.292;2023-04-24T08:45:03;1.70;;;0.73;;
36457;SDS011;22480;50.546;12.292;2023-04-24T08:47:29;1.00;;;0.70;;
36457;SDS011;22480;50.546;12.292;2023-04-24T08:49:56;2.97;;;0.50;;
36457;SDS011;22480;50.546;12.292;2023-04-24T08:52:22;1.55;;;0.40;;
36457;SDS011;22480;50.546;12.292;2023-04-24T08:54:48;2.03;;;0.60;;
36457;SDS011;22480;50.546;12.292;2023-04-24T08:57:14;2.50;;;0.80;;
36457;SDS011;22480;50.546;12.292;2023-04-24T08:59:41;1.13;;;0.65;;
36457;SDS011;22480;50.546;12.292;2023-04-24T09:02:09;1.35;;;0.50;;
36457;SDS011;22480;50.546;12.292;2023-04-24T09:04:36;0.60;;;0.40;;
36457;SDS011;22480;50.546;12.292;2023-04-24T09:07:02;1.85;;;0.80;;
36457;SDS011;22480;50.546;12.292;2023-04-24T09:09:31;1.10;;;0.75;;
36457;SDS011;22480;50.546;12.292;2023-04-24T09:11:58;0.70;;;0.70;;
36457;SDS011;22480;50.546;12.292;2023-04-24T09:14:24;0.98;;;0.80;;
36457;SDS011;22480;50.546;12.292;2023-04-24T09:16:50;0.93;;;0.70;;
36457;SDS011;22480;50.546;12.292;2023-04-24T09:19:16;1.10;;;0.70;;
36457;SDS011;22480;50.546;12.292;2023-04-24T09:21:41;0.75;;;0.52;;
36457;SDS011;22480;50.546;12.292;2023-04-24T09:24:15;2.95;;;0.95;;
36457;SDS011;22480;50.546;12.292;2023-04-24T09:26:43;1.15;;;0.57;;
36457;SDS011;22480;50.546;12.292;2023-04-24T09:29:13;0.93;;;0.50;;
36457;SDS011;22480;50.546;12.292;2023-04-24T09:31:42;1.65;;;0.70;;
36457;SDS011;22480;50.546;12.292;2023-04-24T09:34:09;1.88;;;0.50;;
36457;SDS011;22480;50.546;12.292;2023-04-24T09:36:39;0.77;;;0.63;;
36457;SDS011;22480;50.546;12.292;2023-04-24T09:39:10;0.80;;;0.65;;
36457;SDS011;22480;50.546;12.292;2023-04-24T09:44:17;2.53;;;0.90;;
36457;SDS011;22480;50.546;12.292;2023-04-24T09:46:49;1.30;;;0.70;;
36457;SDS011;22480;50.546;12.292;2023-04-24T09:49:16;1.90;;;0.77;;
36457;SDS011;22480;50.546;12.292;2023-04-24T09:51:48;2.92;;;0.80;;
36457;SDS011;22480;50.546;12.292;2023-04-24T09:54:23;1.95;;;0.80;;
36457;SDS011;22480;50.546;12.292;2023-04-24T09:56:50;2.95;;;1.05;;
36457;SDS011;22480;50.546;12.292;2023-04-24T09:59:19;1.80;;;0.98;;
36457;SDS011;22480;50.546;12.292;2023-04-24T10:01:45;0.73;;;0.60;;
36457;SDS011;22480;50.546;12.292;2023-04-24T10:04:15;2.00;;;0.80;;
36457;SDS011;22480;50.546;12.292;2023-04-24T10:06:43;1.77;;;0.60;;
36457;SDS011;22480;50.546;12.292;2023-04-24T10:09:09;0.98;;;0.55;;
36457;SDS011;22480;50.546;12.292;2023-04-24T10:11:37;2.00;;;0.65;;
36457;SDS011;22480;50.546;12.292;2023-04-24T10:14:06;1.25;;;0.70;;
36457;SDS011;22480;50.546;12.292;2023-04-24T10:16:32;1.48;;;0.70;;
36457;SDS011;22480;50.546;12.292;2023-04-24T10:18:59;0.80;;;0.60;;
36457;SDS011;22480;50.546;12.292;2023-04-24T10:21:25;0.80;;;0.80;;
36457;SDS011;22480;50.546;12.292;2023-04-24T10:23:52;0.75;;;0.70;;
36457;SDS011;22480;50.546;12.292;2023-04-24T10:26:19;1.30;;;0.93;;
36457;SDS011;22480;50.546;12.292;2023-04-24T10:28:45;1.10;;;0.90;;
36457;SDS011;22480;50.546;12.292;2023-04-24T10:31:12;1.30;;;1.00;;
36457;SDS011;22480;50.546;12.292;2023-04-24T10:33:43;1.77;;;1.00;;
36457;SDS011;22480;50.546;12.292;2023-04-24T10:36:10;1.05;;;0.85;;
36457;SDS011;22480;50.546;12.292;2023-04-24T10:38:39;1.23;;;0.95;;
36457;SDS011;22480;50.546;12.292;2023-04-24T10:41:12;1.15;;;0.90;;
36457;SDS011;22480;50.546;12.292;2023-04-24T10:43:44;1.90;;;0.95;;
36457;SDS011;22480;50.546;12.292;2023-04-24T10:46:10;1.15;;;0.70;;
36457;SDS011;22480;50.546;12.292;2023-04-24T10:48:51;0.95;;;0.90;;
36457;SDS011;22480;50.546;12.292;2023-04-24T10:51:21;0.95;;;0.80;;
36457;SDS011;22480;50.546;12.292;2023-04-24T10:53:48;1.90;;;0.80;;
36457;SDS011;22480;50.546;12.292;2023-04-24T10:56:18;2.53;;;0.90;;
36457;SDS011;22480;50.546;12.292;2023-04-24T10:58:47;0.63;;;0.63;;
36457;SDS011;22480;50.546;12.292;2023-04-24T11:01:27;0.65;;;0.65;;
36457;SDS011;22480;50.546;12.292;2023-04-24T11:03:55;1.13;;;0.68;;
36457;SDS011;22480;50.546;12.292;2023-04-24T11:06:28;1.42;;;1.15;;
36457;SDS011;22480;50.546;12.292;2023-04-24T11:09:06;1.00;;;0.63;;
36457;SDS011;22480;50.546;12.292;2023-04-24T11:11:37;3.45;;;1.15;;
36457;SDS011;22480;50.546;12.292;2023-04-24T11:14:09;3.40;;;0.82;;
36457;SDS011;22480;50.546;12.292;2023-04-24T11:19:07;1.63;;;0.90;;
36457;SDS011;22480;50.546;12.292;2023-04-24T11:26:56;1.80;;;0.80;;
36457;SDS011;22480;50.546;12.292;2023-04-24T11:29:44;1.30;;;1.00;;
36457;SDS011;22480;50.546;12.292;2023-04-24T11:34:57;2.58;;;1.02;;
36457;SDS011;22480;50.546;12.292;2023-04-24T11:37:33;1.42;;;1.00;;
36457;SDS011;22480;50.546;12.292;2023-04-24T11:40:04;2.65;;;0.80;;
36457;SDS011;22480;50.546;12.292;2023-04-24T11:42:34;2.60;;;1.10;;
36457;SDS011;22480;50.546;12.292;2023-04-24T11:45:11;1.63;;;0.90;;
36457;SDS011;22480;50.546;12.292;2023-04-24T11:47:38;2.85;;;0.90;;
36457;SDS011;22480;50.546;12.292;2023-04-24T11:50:05;1.38;;;0.90;;
36457;SDS011;22480;50.546;12.292;2023-04-24T11:52:36;1.00;;;1.00;;
36457;SDS011;22480;50.546;12.292;2023-04-24T11:55:03;0.80;;;0.80;;
36457;SDS011;22480;50.546;12.292;2023-04-24T11:57:31;2.80;;;0.70;;
36457;SDS011;22480;50.546;12.292;2023-04-24T12:00:02;1.33;;;0.80;;
36457;SDS011;22480;50.546;12.292;2023-04-24T12:02:42;1.15;;;1.00;;
36457;SDS011;22480;50.546;12.292;2023-04-24T12:05:08;1.85;;;1.15;;
36457;SDS011;22480;50.546;12.292;2023-04-24T12:07:40;1.27;;;1.17;;
36457;SDS011;22480;50.546;12.292;2023-04-24T12:10:09;1.10;;;1.00;;
36457;SDS011;22480;50.546;12.292;2023-04-24T12:12:35;3.72;;;1.50;;
36457;SDS011;22480;50.546;12.292;2023-04-24T12:15:05;1.42;;;0.90;;
36457;SDS011;22480;50.546;12.292;2023-04-24T12:17:33;2.60;;;1.35;;
36457;SDS011;22480;50.546;12.292;2023-04-24T12:20:02;2.28;;;1.33;;
36457;SDS011;22480;50.546;12.292;2023-04-24T12:22:43;2.72;;;1.13;;
36457;SDS011;22480;50.546;12.292;2023-04-24T12:25:10;3.05;;;1.30;;
36457;SDS011;22480;50.546;12.292;2023-04-24T12:27:37;2.85;;;1.52;;
36457;SDS011;22480;50.546;12.292;2023-04-24T12:30:03;2.78;;;1.05;;
36457;SDS011;22480;50.546;12.292;2023-04-24T12:32:30;1.17;;;0.90;;
36457;SDS011;22480;50.546;12.292;2023-04-24T12:34:57;2.15;;;0.95;;
36457;SDS011;22480;50.546;12.292;2023-04-24T12:37:26;1.30;;;1.20;;
36457;SDS011;22480;50.546;12.292;2023-04-24T12:42:29;2.20;;;1.10;;
36457;SDS011;22480;50.546;12.292;2023-04-24T12:44:56;1.00;;;0.90;;
36457;SDS011;22480;50.546;12.292;2023-04-24T12:47:32;1.10;;;1.00;;
36457;SDS011;22480;50.546;12.292;2023-04-24T12:49:59;1.27;;;1.05;;
36457;SDS011;22480;50.546;12.292;2023-04-24T12:52:25;1.33;;;0.82;;
36457;SDS011;22480;50.546;12.292;2023-04-24T12:54:53;1.58;;;1.08;;
36457;SDS011;22480;50.546;12.292;2023-04-24T12:57:20;1.27;;;0.90;;
36457;SDS011;22480;50.546;12.292;2023-04-24T12:59:47;2.60;;;0.90;;
36457;SDS011;22480;50.546;12.292;2023-04-24T13:02:13;1.63;;;1.08;;
36457;SDS011;22480;50.546;12.292;2023-04-24T13:04:39;2.05;;;1.20;;
36457;SDS011;22480;50.546;12.292;2023-04-24T13:07:05;3.53;;;1.63;;
36457;SDS011;22480;50.546;12.292;2023-04-24T13:09:31;1.15;;;0.80;;
36457;SDS011;22480;50.546;12.292;2023-04-24T13:11:56;1.70;;;1.45;;
36457;SDS011;22480;50.546;12.292;2023-04-24T13:14:22;2.20;;;1.73;;
36457;SDS011;22480;50.546;12.292;2023-04-24T13:16:48;10.82;;;1.80;;
36457;SDS011;22480;50.546;12.292;2023-04-24T13:19:14;2.45;;;1.52;;
36457;SDS011;22480;50.546;12.292;2023-04-24T13:21:40;3.53;;;1.50;;
36457;SDS011;22480;50.546;12.292;2023-04-24T13:24:06;1.70;;;1.33;;
36457;SDS011;22480;50.546;12.292;2023-04-24T13:26:33;4.30;;;1.88;;
36457;SDS011;22480;50.546;12.292;2023-04-24T13:28:58;2.97;;;1.83;;
36457;SDS011;22480;50.546;12.292;2023-04-24T13:31:24;2.13;;;1.10;;
36457;SDS011;22480;50.546;12.292;2023-04-24T13:33:50;1.55;;;1.33;;
36457;SDS011;22480;50.546;12.292;2023-04-24T13:36:16;1.70;;;1.40;;
36457;SDS011;22480;50.546;12.292;2023-04-24T13:38:43;1.55;;;1.45;;
36457;SDS011;22480;50.546;12.292;2023-04-24T13:41:09;1.88;;;1.70;;
36457;SDS011;22480;50.546;12.292;2023-04-24T13:43:35;2.13;;;1.63;;
36457;SDS011;22480;50.546;12.292;2023-04-24T13:46:01;2.90;;;1.30;;
36457;SDS011;22480;50.546;12.292;2023-04-24T13:48:28;4.10;;;1.60;;
36457;SDS011;22480;50.546;12.292;2023-04-24T13:50:54;1.92;;;1.60;;
36457;SDS011;22480;50.546;12.292;2023-04-24T13:53:20;1.75;;;1.20;;
36457;SDS011;22480;50.546;12.292;2023-04-24T13:55:46;1.67;;;1.13;;
36457;SDS011;22480;50.546;12.292;2023-04-24T13:58:11;2.45;;;1.40;;
36457;SDS011;22480;50.546;12.292;2023-04-24T14:00:37;2.55;;;1.60;;
36457;SDS011;22480;50.546;12.292;2023-04-24T14:03:03;1.70;;;1.05;;
36457;SDS011;22480;50.546;12.292;2023-04-24T14:05:29;1.63;;;1.40;;
36457;SDS011;22480;50.546;12.292;2023-04-24T14:07:54;1.83;;;0.90;;
36457;SDS011;22480;50.546;12.292;2023-04-24T14:10:20;0.80;;;0.80;;
36457;SDS011;22480;50.546;12.292;2023-04-24T14:12:46;1.17;;;1.08;;
36457;SDS011;22480;50.546;12.292;2023-04-24T14:15:12;2.22;;;1.17;;
36457;SDS011;22480;50.546;12.292;2023-04-24T14:17:38;1.48;;;1.38;;
36457;SDS011;22480;50.546;12.292;2023-04-24T14:20:05;1.67;;;1.30;;
36457;SDS011;22480;50.546;12.292;2023-04-24T14:22:32;1.52;;;1.10;;
36457;SDS011;22480;50.546;12.292;2023-04-24T14:24:57;1.25;;;1.15;;
36457;SDS011;22480;50.546;12.292;2023-04-24T14:27:24;1.23;;;1.00;;
36457;SDS011;22480;50.546;12.292;2023-04-24T14:29:50;2.55;;;1.30;;
36457;SDS011;22480;50.546;12.292;2023-04-24T14:32:15;1.70;;;1.17;;
36457;SDS011;22480;50.546;12.292;2023-04-24T14:34:41;2.58;;;1.70;;
36457;SDS011;22480;50.546;12.292;2023-04-24T14:37:07;1.25;;;1.15;;
36457;SDS011;22480;50.546;12.292;2023-04-24T14:39:33;2.35;;;1.17;;
36457;SDS011;22480;50.546;12.292;2023-04-24T14:41:58;1.65;;;0.90;;
36457;SDS011;22480;50.546;12.292;2023-04-24T14:44:25;1.30;;;1.20;;
36457;SDS011;22480;50.546;12.292;2023-04-24T14:46:51;1.30;;;1.10;;
36457;SDS011;22480;50.546;12.292;2023-04-24T14:49:16;0.95;;;0.80;;
36457;SDS011;22480;50.546;12.292;2023-04-24T14:51:42;1.42;;;0.90;;